Avoca, IA

4:42 PM CDT on July 22, 2019 (GMT -0500)
Harlan Municipal | | Change Station
Active Advisory: Flood Advisory Active Notice: Flood Advisory

Elev 1230 ft 41.58 °N, 95.34 °W | Updated 7 minutes ago

Partly Cloudy
Partly Cloudy
75 °F
Feels Like 75 °F
N
9
Wind Variable Wind from North
Gusts 15 mph

Today
High -- | Low -- °F
--% Chance of Precip.
Yesterday
High -- | Low -- °F
Precip. -- in
Pressure 30.23 in
Visibility 10.0 miles
Clouds Few 4900 ft
Few 6000 ft
Dew Point 59 °F
Humidity 57%
Rainfall 0.00 in
Snow Depth Not available.
6:06 AM 8:48 PM
Waning Gibbous, 70% visible
METAR KHNR 222135Z AUTO 36008G13KT 10SM FEW049 FEW060 24/15 A3023 RMK AO2 PWINO
Pressure 30.23 in
Visibility 10.0 miles
Clouds Few 4900 ft
Few 6000 ft
Dew Point 59 °F
Humidity 57%
Rainfall 0.00 in
Snow Depth Not available.
6:06 AM 8:48 PM
Waning Gibbous, 70% visible
METAR KHNR 222135Z AUTO 36008G13KT 10SM FEW049 FEW060 24/15 A3023 RMK AO2 PWINO

Get Your Daily Forecast Email!

Thanks for signing up!

Be on the lookout for a verification email in your inbox.

You'll start receiving severe weather alerts in your inbox..

×

10-Day Weather Forecast

Almanac

Astronomy

Jul. 22, 2019 Rise Set
Actual Time
Civil Twilight
Nautical Twilight
Astronomical Twilight
Moon
Length of Visible Light
Length of Day
Tomorrow will be .
, % of the Moon is Illuminated

Today's Extremes

State Highs State Lows

Community

WunderPhotos

Category 6

Welcome to Category 6. This is the collective home for Weather Underground's featured writeups by Dr. Jeff Masters (right), Bob Henson (left), Chris Burt, and other regular contributors.

Nearby

Air Quality

  Air Quality AQ Index Pollutant
Not available.

Snow Depth

Station Depth Elevation

Earthquake Activity

City Distance Mag. Time & Date
Minimum magnitude displayed is 2.5.

Coastal Water Temperatures

Place Temperature

Stations

Nearby Weather Stations

Station Location Temp. Windchill Dew Point Humidity Wind Precip. Elev Updated Type
                   

Watches & Warnings

Flood Advisory
Issued: 9:52 AM CDT Jul. 22, 2019 – National Weather Service

The flood advisory continues for
the Missouri River at Omaha.
* Until further notice.
* At 9:30 am Monday the stage was 27.7 feet.
* Flood stage is 29.0 feet.
* Forecast... river levels will remain nearly steady this week,
with slow declines possible toward the start of August.



Lat... Lon 4142 9602 4142 9583 4107 9574 4106 9591
      4132 9595



Albright